Time;durP1;ratioP1;P1;durP2;ratioP2;P2;SDS_P1;SDS_P2;PMS_P1;PMS_P2;Temp;Humidity;BMP_temperature;BMP_pressure;BME280_temperature;BME280_humidity;BME280_pressure;Samples;Min_cycle;Max_cycle;Signal;HPM_P1;HPM_P2
2022/12/09 00:00:56;;;;;;;11.83;7.53;;;6.20;53.20;;;;;;5042830;28;20439;-58
2022/12/09 00:03:22;;;;;;;12.70;7.97;;;6.20;53.20;;;;;;5035116;28;20440;-58
2022/12/09 00:05:48;;;;;;;11.43;7.40;;;6.20;53.20;;;;;;5037779;28;20508;-58
2022/12/09 00:08:14;;;;;;;11.43;6.73;;;6.20;53.20;;;;;;5051649;28;20247;-58
2022/12/09 00:10:42;;;;;;;8.70;6.10;;;6.10;53.10;;;;;;5039588;28;20470;-58
2022/12/09 00:13:08;;;;;;;9.10;7.50;;;6.00;53.50;;;;;;5034415;28;20192;-58
2022/12/09 00:15:38;;;;;;;12.10;7.23;;;6.00;53.70;;;;;;5042558;28;20450;-59
2022/12/09 00:18:04;;;;;;;9.83;7.53;;;5.90;53.70;;;;;;5045586;28;20454;-58
2022/12/09 00:20:30;;;;;;;9.37;7.57;;;5.90;54.00;;;;;;5033779;28;20820;-58
2022/12/09 00:22:56;;;;;;;9.63;8.50;;;5.80;54.30;;;;;;5034422;28;20427;-57
2022/12/09 00:25:21;;;;;;;9.93;7.90;;;5.80;54.30;;;;;;5030031;28;20193;-58
2022/12/09 00:27:47;;;;;;;11.27;7.20;;;5.70;54.40;;;;;;5046019;28;20525;-58
2022/12/09 00:30:12;;;;;;;11.90;8.73;;;5.80;54.40;;;;;;5035519;28;20657;-58
2022/12/09 00:32:38;;;;;;;9.70;7.70;;;5.80;54.30;;;;;;5037248;28;20275;-58
2022/12/09 00:35:04;;;;;;;9.73;6.57;;;5.70;54.40;;;;;;5036970;28;20289;-58
2022/12/09 00:37:30;;;;;;;10.50;7.03;;;5.70;54.30;;;;;;5043582;28;20267;-58
2022/12/09 00:39:55;;;;;;;10.27;6.87;;;5.70;54.60;;;;;;5043313;28;20470;-58
2022/12/09 00:42:21;;;;;;;9.90;7.13;;;5.70;54.60;;;;;;5037744;28;20672;-58
2022/12/09 00:44:46;;;;;;;11.37;7.90;;;5.70;54.70;;;;;;5035556;28;20656;-58
2022/12/09 00:47:12;;;;;;;8.90;6.80;;;5.80;54.60;;;;;;5034081;28;20193;-58
2022/12/09 00:49:37;;;;;;;9.97;7.03;;;5.80;54.40;;;;;;5037787;28;20224;-58
2022/12/09 00:52:03;;;;;;;11.47;6.87;;;5.80;54.10;;;;;;5035673;28;21031;-58
2022/12/09 00:54:29;;;;;;;9.73;7.43;;;5.70;54.10;;;;;;5045503;28;20200;-58
2022/12/09 00:56:55;;;;;;;9.53;6.50;;;5.70;54.30;;;;;;5039627;28;20197;-58
2022/12/09 00:59:21;;;;;;;10.17;7.90;;;5.70;54.90;;;;;;5040233;28;20283;-58
2022/12/09 01:01:47;;;;;;;11.17;8.20;;;5.70;54.40;;;;;;5038850;28;21662;-58
2022/12/09 01:04:12;;;;;;;12.93;7.13;;;5.70;54.20;;;;;;5037362;28;20197;-59
2022/12/09 01:06:38;;;;;;;8.63;6.67;;;5.70;54.30;;;;;;5037090;28;20193;-58
2022/12/09 01:09:04;;;;;;;8.77;7.33;;;5.70;54.10;;;;;;5033667;28;20302;-58
2022/12/09 01:11:29;;;;;;;8.03;6.67;;;5.70;54.20;;;;;;5045248;28;20706;-58
2022/12/09 01:13:59;;;;;;;9.47;7.30;;;5.70;54.20;;;;;;5040724;28;20267;-58
2022/12/09 01:16:27;;;;;;;9.27;7.00;;;5.70;54.20;;;;;;5032173;28;20200;-58
2022/12/09 01:18:54;;;;;;;8.20;7.03;;;5.60;54.10;;;;;;5045478;28;20975;-58
2022/12/09 01:21:20;;;;;;;11.73;7.60;;;5.60;54.20;;;;;;5034791;28;20971;-57
2022/12/09 01:23:45;;;;;;;11.57;7.30;;;5.60;54.30;;;;;;5034990;28;20514;-57
2022/12/09 01:26:11;;;;;;;11.03;7.33;;;5.50;54.30;;;;;;5030436;28;20205;-58
2022/12/09 01:28:38;;;;;;;16.07;8.87;;;5.50;54.60;;;;;;5039418;28;20232;-58
2022/12/09 01:31:16;;;;;;;9.47;7.07;;;5.50;54.60;;;;;;5041507;28;20292;-58
2022/12/09 01:33:42;;;;;;;12.37;7.47;;;5.50;54.40;;;;;;5032148;28;20457;-58
2022/12/09 01:36:12;;;;;;;10.73;7.83;;;5.50;54.50;;;;;;5033532;28;20451;-58
2022/12/09 01:38:38;;;;;;;12.20;7.37;;;5.50;54.40;;;;;;5038051;28;20246;-57
2022/12/09 01:41:04;;;;;;;8.60;7.20;;;5.50;54.20;;;;;;5040399;28;20442;-58
2022/12/09 01:43:29;;;;;;;9.03;7.30;;;5.60;54.20;;;;;;5031501;28;20803;-58
2022/12/09 01:45:55;;;;;;;10.53;8.30;;;5.60;54.10;;;;;;5036948;28;20294;-58
2022/12/09 01:48:25;;;;;;;11.00;7.60;;;5.50;54.10;;;;;;5033400;28;20228;-58
2022/12/09 01:50:59;;;;;;;7.90;6.90;;;5.50;54.20;;;;;;5036361;28;20277;-58
2022/12/09 01:53:28;;;;;;;8.77;7.17;;;5.50;54.30;;;;;;5037902;28;20458;-58
2022/12/09 01:55:56;;;;;;;10.97;7.33;;;5.50;54.40;;;;;;5042491;28;20831;-58
2022/12/09 01:58:22;;;;;;;9.00;7.33;;;5.50;54.50;;;;;;5031778;28;21023;-58
2022/12/09 02:00:47;;;;;;;10.23;7.10;;;5.50;54.60;;;;;;5038146;28;21206;-58
2022/12/09 02:03:14;;;;;;;11.17;7.60;;;5.50;54.50;;;;;;5038631;28;20489;-57
2022/12/09 02:05:40;;;;;;;10.37;6.73;;;5.40;54.30;;;;;;5035396;28;20240;-58
2022/12/09 02:08:14;;;;;;;10.33;7.27;;;5.40;54.60;;;;;;5031951;28;20459;-58
2022/12/09 02:11:19;;;;;;;9.20;7.17;;;5.30;54.40;;;;;;5040325;28;20507;-58
2022/12/09 02:13:48;;;;;;;10.80;7.00;;;5.30;54.20;;;;;;5031142;28;20970;-58
2022/12/09 02:16:18;;;;;;;8.30;7.23;;;5.30;54.20;;;;;;5030946;28;20447;-58
2022/12/09 02:18:59;;;;;;;8.40;6.30;;;5.30;53.90;;;;;;5038059;28;20465;-58
2022/12/09 02:21:32;;;;;;;10.67;7.13;;;5.30;53.70;;;;;;5045936;28;20443;-58
2022/12/09 02:24:01;;;;;;;11.90;6.40;;;5.30;53.70;;;;;;5039766;28;20547;-58
2022/12/09 02:26:37;;;;;;;10.70;7.60;;;5.20;53.70;;;;;;5038719;28;21662;-57
2022/12/09 02:29:34;;;;;;;10.07;7.20;;;5.10;53.70;;;;;;5035970;28;20482;-58
2022/12/09 02:32:41;;;;;;;9.50;7.77;;;5.10;53.90;;;;;;5034063;28;20890;-57
2022/12/09 02:35:09;;;;;;;7.43;5.93;;;5.10;53.90;;;;;;5034352;28;20462;-58
2022/12/09 02:37:43;;;;;;;9.13;7.73;;;5.10;54.00;;;;;;5029099;28;20854;-58
2022/12/09 02:40:47;;;;;;;12.00;6.50;;;5.00;54.20;;;;;;5034200;28;20443;-58
2022/12/09 02:43:16;;;;;;;7.90;6.30;;;4.90;54.80;;;;;;5032808;28;20447;-58
2022/12/09 02:45:43;;;;;;;7.83;5.60;;;4.90;55.00;;;;;;5035611;28;20443;-58
2022/12/09 02:48:12;;;;;;;8.60;6.83;;;5.00;55.00;;;;;;5034983;28;20594;-58
2022/12/09 02:50:41;;;;;;;10.40;6.40;;;5.00;54.80;;;;;;5035674;28;20447;-58
2022/12/09 02:53:10;;;;;;;9.73;7.00;;;5.00;54.80;;;;;;5038751;28;20845;-58
2022/12/09 02:55:38;;;;;;;9.50;5.93;;;5.00;54.70;;;;;;5031621;28;20804;-58
2022/12/09 02:58:03;;;;;;;6.83;5.20;;;5.10;54.60;;;;;;5034241;28;20436;-58
2022/12/09 03:00:29;;;;;;;7.93;6.50;;;5.00;54.50;;;;;;5044553;28;21091;-59
2022/12/09 03:03:00;;;;;;;8.07;6.30;;;5.00;54.70;;;;;;5045219;28;20288;-58
2022/12/09 03:05:32;;;;;;;7.80;6.53;;;5.00;54.70;;;;;;5047116;28;20448;-58
2022/12/09 03:08:19;;;;;;;9.70;6.93;;;5.00;54.50;;;;;;5041038;28;20462;-58
2022/12/09 03:10:56;;;;;;;7.47;5.90;;;5.10;54.40;;;;;;5052617;28;20447;-58
2022/12/09 03:13:46;;;;;;;7.17;5.57;;;5.10;54.20;;;;;;5039484;28;20871;-58
2022/12/09 03:16:23;;;;;;;9.57;6.50;;;5.10;54.10;;;;;;5046427;28;20447;-58
2022/12/09 03:18:55;;;;;;;11.10;7.20;;;5.00;54.00;;;;;;5054205;28;20941;-58
2022/12/09 03:21:25;;;;;;;9.27;7.20;;;5.00;54.10;;;;;;5047474;28;20440;-58
2022/12/09 03:23:55;;;;;;;10.73;7.70;;;4.90;54.20;;;;;;5045067;28;20467;-57
2022/12/09 03:26:22;;;;;;;8.57;6.47;;;4.90;54.30;;;;;;5041050;28;20454;-58
2022/12/09 03:28:50;;;;;;;9.47;7.60;;;4.90;54.40;;;;;;5043701;28;20502;-58
2022/12/09 03:31:19;;;;;;;10.17;7.40;;;4.90;54.50;;;;;;5050443;28;20435;-57
2022/12/09 03:33:52;;;;;;;9.10;6.50;;;4.90;54.60;;;;;;5049183;28;20442;-57
2022/12/09 03:36:21;;;;;;;8.10;6.40;;;4.90;54.50;;;;;;5047466;28;20447;-58
2022/12/09 03:38:48;;;;;;;7.70;6.47;;;4.70;54.80;;;;;;5047418;28;20500;-58
2022/12/09 03:41:24;;;;;;;11.23;7.10;;;4.70;55.00;;;;;;5041906;28;20814;-58
2022/12/09 03:43:54;;;;;;;10.17;6.60;;;4.80;54.90;;;;;;5051711;28;20813;-57
2022/12/09 03:46:21;;;;;;;12.30;7.27;;;4.70;54.80;;;;;;5044903;28;20450;-57
2022/12/09 03:48:47;;;;;;;8.50;5.90;;;4.70;54.80;;;;;;5041718;28;20487;-57
2022/12/09 03:51:20;;;;;;;9.90;7.03;;;4.80;54.80;;;;;;5059887;28;20435;-58
2022/12/09 03:53:58;;;;;;;9.67;5.90;;;4.80;54.70;;;;;;5052445;28;20454;-58
2022/12/09 03:56:33;;;;;;;7.30;6.20;;;4.80;54.60;;;;;;5052745;28;20474;-58
2022/12/09 03:59:02;;;;;;;6.83;6.03;;;4.80;54.40;;;;;;5043220;28;20900;-57
2022/12/09 04:01:30;;;;;;;7.20;6.20;;;4.70;54.40;;;;;;5041038;28;20994;-58
2022/12/09 04:03:56;;;;;;;9.20;7.30;;;4.70;54.60;;;;;;5042513;28;20443;-57
2022/12/09 04:06:22;;;;;;;11.77;6.90;;;4.60;54.70;;;;;;5045447;28;20446;-58
2022/12/09 04:08:48;;;;;;;8.60;6.37;;;4.70;54.70;;;;;;5041392;28;20278;-58
2022/12/09 04:11:14;;;;;;;9.43;6.63;;;4.70;54.60;;;;;;5042436;28;20439;-57
2022/12/09 04:13:39;;;;;;;11.47;6.90;;;4.70;54.50;;;;;;5043369;28;20213;-58
2022/12/09 04:16:05;;;;;;;7.10;5.90;;;4.70;54.60;;;;;;5038626;28;20231;-57
2022/12/09 04:18:31;;;;;;;6.73;6.00;;;4.60;54.70;;;;;;5046220;28;20197;-57
2022/12/09 04:20:56;;;;;;;7.03;6.30;;;4.60;54.60;;;;;;5037240;28;20193;-58
2022/12/09 04:23:22;;;;;;;7.67;6.30;;;4.40;55.00;;;;;;5036746;28;20228;-58
2022/12/09 04:25:48;;;;;;;8.60;6.13;;;4.40;55.20;;;;;;5038343;28;20193;-57
2022/12/09 04:28:13;;;;;;;8.60;5.90;;;4.40;55.20;;;;;;5035635;28;20244;-58
2022/12/09 04:30:44;;;;;;;9.73;6.37;;;4.50;55.10;;;;;;5036160;28;20185;-58
2022/12/09 04:33:10;;;;;;;8.33;6.00;;;4.50;55.00;;;;;;5039129;28;20213;-58
2022/12/09 04:35:35;;;;;;;8.33;5.80;;;4.60;55.00;;;;;;5037581;28;20779;-58
2022/12/09 04:38:01;;;;;;;6.63;5.33;;;4.60;55.00;;;;;;5040469;28;20192;-58
2022/12/09 04:40:26;;;;;;;10.07;7.10;;;4.60;54.70;;;;;;5051493;28;20184;-57
2022/12/09 04:42:52;;;;;;;7.40;5.37;;;4.60;54.50;;;;;;5052652;28;20347;-57
2022/12/09 04:45:17;;;;;;;7.77;6.23;;;4.60;54.40;;;;;;5052047;28;20192;-57
2022/12/09 04:47:43;;;;;;;9.07;6.00;;;4.60;54.20;;;;;;5036832;28;20678;-58
2022/12/09 04:50:09;;;;;;;8.40;6.40;;;4.60;54.20;;;;;;5029142;28;20220;-57
2022/12/09 04:52:35;;;;;;;10.60;6.57;;;4.60;54.20;;;;;;5042247;28;20189;-58
2022/12/09 04:55:01;;;;;;;11.10;7.10;;;4.60;54.10;;;;;;5036258;28;20447;-58
2022/12/09 04:57:28;;;;;;;7.90;6.70;;;4.60;54.20;;;;;;5033823;28;20197;-57
2022/12/09 04:59:54;;;;;;;9.60;7.37;;;4.60;54.40;;;;;;5040012;28;20522;-58
2022/12/09 05:02:20;;;;;;;9.07;6.17;;;4.60;54.60;;;;;;5033819;28;20448;-58
2022/12/09 05:04:45;;;;;;;8.80;5.70;;;4.50;54.90;;;;;;5045536;28;20478;-58
2022/12/09 05:07:12;;;;;;;11.77;6.60;;;4.50;55.30;;;;;;5034605;28;20257;-58
2022/12/09 05:09:38;;;;;;;9.50;6.37;;;4.50;55.40;;;;;;5042452;28;20221;-58
2022/12/09 05:12:04;;;;;;;7.73;6.23;;;4.50;55.60;;;;;;5036485;28;20935;-58
2022/12/09 05:14:29;;;;;;;10.23;6.90;;;4.50;55.60;;;;;;5033284;28;20513;-58
2022/12/09 05:16:55;;;;;;;10.50;6.87;;;4.50;55.60;;;;;;5040310;28;20527;-58
2022/12/09 05:19:21;;;;;;;7.90;6.80;;;4.50;55.80;;;;;;5039218;28;20209;-58
2022/12/09 05:21:47;;;;;;;7.13;6.27;;;4.50;56.00;;;;;;5039678;28;20193;-58
2022/12/09 05:24:12;;;;;;;6.80;6.13;;;4.50;56.00;;;;;;5034740;28;20232;-58
2022/12/09 05:26:38;;;;;;;10.60;6.47;;;4.50;55.90;;;;;;5038190;28;20652;-58
2022/12/09 05:29:04;;;;;;;11.10;6.67;;;4.60;55.80;;;;;;5032250;28;20239;-58
2022/12/09 05:31:30;;;;;;;9.07;6.23;;;4.60;55.50;;;;;;5030330;28;20193;-58
2022/12/09 05:33:56;;;;;;;11.10;7.17;;;4.60;55.40;;;;;;5035102;28;20878;-58
2022/12/09 05:36:24;;;;;;;9.00;7.60;;;4.70;55.40;;;;;;5033718;28;20555;-58
2022/12/09 05:38:50;;;;;;;8.60;6.53;;;4.60;55.20;;;;;;5042064;28;20450;-58
2022/12/09 05:41:17;;;;;;;7.90;5.83;;;4.60;55.10;;;;;;5035224;28;20454;-58
2022/12/09 05:43:42;;;;;;;8.73;6.57;;;4.60;55.00;;;;;;5037882;28;20509;-58
2022/12/09 05:46:08;;;;;;;13.10;8.47;;;4.60;54.70;;;;;;5038018;28;20443;-58
2022/12/09 05:48:35;;;;;;;13.23;11.00;;;4.60;54.50;;;;;;5033408;28;20591;-58
2022/12/09 05:51:16;;;;;;;12.10;9.30;;;4.60;54.50;;;;;;5036047;28;21042;-58
2022/12/09 05:53:42;;;;;;;9.13;7.17;;;4.60;54.40;;;;;;5039215;28;20538;-58
2022/12/09 05:56:08;;;;;;;9.00;6.50;;;4.60;54.40;;;;;;5036140;28;20538;-58
2022/12/09 05:58:34;;;;;;;11.77;7.80;;;4.60;54.50;;;;;;5030415;28;20450;-58
2022/12/09 06:01:07;;;;;;;11.53;8.20;;;4.60;54.80;;;;;;5026698;28;20197;-59
2022/12/09 06:03:32;;;;;;;13.30;8.20;;;4.60;55.00;;;;;;5037755;28;20627;-58
2022/12/09 06:05:58;;;;;;;9.37;8.27;;;4.60;55.10;;;;;;5034794;28;20558;-58
2022/12/09 06:08:24;;;;;;;13.20;8.67;;;4.60;55.20;;;;;;5033396;28;20271;-58
2022/12/09 06:10:49;;;;;;;10.47;7.50;;;4.50;55.20;;;;;;5043008;28;20195;-59
2022/12/09 06:13:15;;;;;;;9.30;7.33;;;4.60;55.30;;;;;;5034532;28;20188;-58
2022/12/09 06:15:40;;;;;;;10.80;7.30;;;4.60;55.30;;;;;;5030446;28;20194;-58
2022/12/09 06:18:06;;;;;;;10.30;7.40;;;4.60;55.30;;;;;;5039772;28;20952;-58
2022/12/09 06:20:32;;;;;;;9.47;7.37;;;4.60;55.50;;;;;;5029777;28;20192;-59
2022/12/09 06:22:58;;;;;;;9.87;8.53;;;4.70;56.20;;;;;;5033398;28;20276;-59
2022/12/09 06:25:23;;;;;;;12.17;8.30;;;5.00;58.20;;;;;;5029772;28;20530;-59
2022/12/09 06:27:51;;;;;;;10.97;7.83;;;5.40;59.70;;;;;;5031286;28;20197;-58
2022/12/09 06:30:16;;;;;;;8.67;7.77;;;5.70;58.70;;;;;;5036120;28;20228;-58
2022/12/09 06:32:42;;;;;;;10.03;7.80;;;5.80;56.60;;;;;;5046580;28;20446;-58
2022/12/09 06:35:08;;;;;;;8.87;7.27;;;5.70;55.20;;;;;;5038456;28;20796;-58
2022/12/09 06:37:33;;;;;;;14.10;9.30;;;5.60;54.10;;;;;;5040766;28;20200;-58
2022/12/09 06:39:59;;;;;;;9.97;8.67;;;5.50;54.60;;;;;;5052343;28;20606;-58
2022/12/09 06:42:24;;;;;;;13.93;9.37;;;5.40;53.90;;;;;;5048700;28;20235;-58
2022/12/09 06:44:50;;;;;;;13.50;9.70;;;5.30;54.40;;;;;;5045670;28;20254;-58
2022/12/09 06:47:15;;;;;;;12.77;8.50;;;5.30;54.10;;;;;;5052734;28;20197;-58
2022/12/09 06:49:41;;;;;;;9.83;7.43;;;5.20;54.30;;;;;;5053701;28;20226;-58
2022/12/09 06:52:06;;;;;;;15.13;8.80;;;5.20;54.50;;;;;;5054363;28;20722;-58
2022/12/09 06:54:32;;;;;;;16.60;9.70;;;5.20;54.60;;;;;;5051738;28;20630;-58
2022/12/09 06:56:58;;;;;;;13.07;8.80;;;5.10;54.60;;;;;;5044365;28;20234;-58
2022/12/09 06:59:23;;;;;;;11.17;9.90;;;5.10;54.80;;;;;;5052468;28;20196;-58
2022/12/09 07:01:49;;;;;;;12.43;10.17;;;5.20;54.80;;;;;;5053989;28;20731;-58
2022/12/09 07:04:15;;;;;;;13.10;10.37;;;5.20;55.00;;;;;;5051261;28;20450;-58
2022/12/09 07:06:43;;;;;;;15.97;9.87;;;5.20;54.60;;;;;;5048181;28;20215;-58
2022/12/09 07:09:14;;;;;;;12.93;9.93;;;5.20;54.50;;;;;;5040540;28;20286;-58
2022/12/09 07:11:41;;;;;;;16.10;10.33;;;5.20;54.50;;;;;;5051624;28;20911;-58
2022/12/09 07:14:07;;;;;;;10.97;8.67;;;5.20;54.50;;;;;;5042668;28;21012;-58
2022/12/09 07:16:34;;;;;;;14.10;9.17;;;5.10;54.70;;;;;;5055831;28;20415;-58
2022/12/09 07:19:00;;;;;;;14.63;9.60;;;5.10;55.00;;;;;;5048859;28;20445;-58
2022/12/09 07:21:27;;;;;;;10.47;8.23;;;5.10;55.10;;;;;;5055597;28;20438;-58
2022/12/09 07:23:52;;;;;;;16.20;10.30;;;5.10;54.90;;;;;;5051069;28;21550;-58
2022/12/09 07:26:19;;;;;;;11.90;9.97;;;5.10;54.90;;;;;;5054642;28;20441;-58
2022/12/09 07:28:49;;;;;;;12.63;10.40;;;5.10;54.90;;;;;;5052278;28;20232;-58
2022/12/09 07:31:27;;;;;;;16.00;11.60;;;5.10;55.20;;;;;;5040847;28;20435;-58
2022/12/09 07:33:56;;;;;;;15.40;10.67;;;5.10;55.20;;;;;;5048744;28;20454;-57
2022/12/09 07:36:24;;;;;;;13.47;11.10;;;5.00;55.30;;;;;;5039826;28;20486;-57
2022/12/09 07:39:00;;;;;;;17.10;12.00;;;5.10;55.50;;;;;;5052263;28;20465;-58
2022/12/09 07:41:26;;;;;;;12.73;10.17;;;5.10;55.50;;;;;;5053597;28;20537;-59
2022/12/09 07:43:52;;;;;;;10.80;9.20;;;5.10;55.40;;;;;;5044570;28;20443;-59
2022/12/09 07:46:19;;;;;;;11.30;9.13;;;5.10;55.70;;;;;;5045540;28;20438;-58
2022/12/09 07:48:45;;;;;;;13.33;9.17;;;5.10;55.90;;;;;;5045759;28;20225;-58
2022/12/09 07:51:11;;;;;;;13.27;9.23;;;5.20;55.90;;;;;;5046401;28;20480;-58
2022/12/09 07:53:37;;;;;;;15.07;10.10;;;5.30;55.80;;;;;;5049519;28;20447;-58
2022/12/09 07:56:05;;;;;;;11.83;9.17;;;5.30;55.70;;;;;;5038234;28;20203;-58
2022/12/09 07:58:32;;;;;;;12.83;10.07;;;5.30;55.40;;;;;;5048086;28;20439;-59
2022/12/09 08:01:04;;;;;;;14.37;10.27;;;5.30;55.40;;;;;;5042988;28;20442;-58
2022/12/09 08:03:30;;;;;;;12.80;9.23;;;5.40;55.60;;;;;;5049278;28;21413;-58
2022/12/09 08:05:56;;;;;;;14.70;10.60;;;5.40;55.60;;;;;;5035517;28;20490;-59
2022/12/09 08:08:21;;;;;;;14.73;10.80;;;5.40;55.80;;;;;;5044785;28;20223;-59
2022/12/09 08:10:48;;;;;;;16.60;12.00;;;5.40;56.00;;;;;;5043092;28;20197;-59
2022/12/09 08:13:13;;;;;;;14.13;11.33;;;5.40;56.00;;;;;;5046053;28;20270;-59
2022/12/09 08:15:39;;;;;;;14.43;11.17;;;5.50;56.10;;;;;;5047768;28;20938;-58
2022/12/09 08:18:05;;;;;;;18.50;9.87;;;5.50;56.00;;;;;;5056147;28;20185;-59
2022/12/09 08:20:30;;;;;;;11.87;8.87;;;5.50;56.00;;;;;;5044473;28;20200;-59
2022/12/09 08:22:56;;;;;;;10.17;8.90;;;5.50;56.20;;;;;;5046513;28;20198;-59
2022/12/09 08:25:22;;;;;;;16.87;10.20;;;5.60;56.10;;;;;;5043124;28;20227;-59
2022/12/09 08:27:48;;;;;;;13.33;9.23;;;5.70;56.20;;;;;;5048810;28;20884;-58
2022/12/09 08:30:15;;;;;;;11.07;8.67;;;5.80;56.20;;;;;;5040626;28;20224;-58
2022/12/09 08:32:40;;;;;;;11.63;10.43;;;5.80;56.20;;;;;;5040536;28;20279;-58
2022/12/09 08:35:13;;;;;;;14.70;9.87;;;5.80;56.10;;;;;;5040608;28;20535;-59
2022/12/09 08:37:42;;;;;;;15.73;9.57;;;5.90;56.10;;;;;;5038630;28;20199;-59
2022/12/09 08:40:09;;;;;;;12.73;10.57;;;5.90;56.00;;;;;;5046246;28;20455;-58
2022/12/09 08:42:35;;;;;;;14.03;10.10;;;5.90;55.90;;;;;;5034870;28;20439;-59
2022/12/09 08:45:00;;;;;;;14.50;10.67;;;6.00;55.70;;;;;;5042711;28;20439;-59
2022/12/09 08:47:27;;;;;;;13.83;9.63;;;6.10;55.70;;;;;;5041068;28;20193;-58
2022/12/09 08:49:53;;;;;;;16.83;10.13;;;6.10;55.80;;;;;;5045748;28;20658;-59
2022/12/09 08:52:18;;;;;;;15.40;10.97;;;6.10;55.80;;;;;;5047533;28;20534;-59
2022/12/09 08:54:44;;;;;;;12.40;9.50;;;6.20;56.00;;;;;;5039211;28;20258;-59
2022/12/09 08:57:09;;;;;;;13.00;9.67;;;6.20;56.00;;;;;;5041191;28;20232;-59
2022/12/09 08:59:35;;;;;;;14.17;11.40;;;6.20;56.10;;;;;;5036500;28;20239;-59
2022/12/09 09:02:01;;;;;;;18.40;11.03;;;6.30;56.10;;;;;;5049230;28;20185;-59
2022/12/09 09:04:26;;;;;;;17.67;12.10;;;6.40;56.00;;;;;;5052381;28;20234;-59
2022/12/09 09:06:52;;;;;;;14.40;11.03;;;6.40;55.80;;;;;;5049927;28;20535;-59
2022/12/09 09:09:19;;;;;;;14.70;11.40;;;6.40;55.60;;;;;;5041853;28;20225;-60
2022/12/09 09:11:45;;;;;;;13.77;10.50;;;6.40;55.70;;;;;;5051769;28;20419;-60
2022/12/09 09:14:12;;;;;;;14.37;10.83;;;6.40;55.80;;;;;;5042926;28;20448;-59
2022/12/09 09:16:40;;;;;;;15.70;11.73;;;6.40;55.90;;;;;;5051235;28;20608;-59
2022/12/09 09:19:06;;;;;;;16.60;11.90;;;6.50;55.80;;;;;;5050913;28;20859;-59
2022/12/09 09:21:32;;;;;;;14.03;10.63;;;6.50;55.70;;;;;;5051419;28;20762;-59
2022/12/09 09:23:58;;;;;;;12.67;11.37;;;6.60;55.80;;;;;;5046674;28;20982;-59
2022/12/09 09:26:26;;;;;;;15.87;11.07;;;6.60;55.70;;;;;;5049113;28;20439;-59
2022/12/09 09:28:54;;;;;;;14.73;12.00;;;6.70;56.00;;;;;;5045781;28;20487;-59
2022/12/09 09:31:21;;;;;;;12.30;10.30;;;6.70;56.10;;;;;;5051520;28;20925;-59
2022/12/09 09:33:48;;;;;;;14.00;11.10;;;6.70;55.90;;;;;;5048883;28;20439;-59
2022/12/09 09:36:19;;;;;;;18.03;13.10;;;6.80;55.90;;;;;;5049456;28;22545;-59
2022/12/09 09:38:45;;;;;;;16.77;12.53;;;6.80;55.40;;;;;;5051738;28;20441;-59
2022/12/09 09:41:30;;;;;;;15.53;11.20;;;6.80;55.30;;;;;;5042022;28;20804;-59
2022/12/09 09:43:56;;;;;;;14.47;11.50;;;6.80;55.50;;;;;;5050264;28;20793;-59
2022/12/09 09:46:38;;;;;;;14.87;12.37;;;6.80;55.50;;;;;;5049677;28;20427;-59
2022/12/09 09:49:09;;;;;;;18.33;12.50;;;6.80;55.30;;;;;;5051054;28;20554;-60
2022/12/09 09:51:34;;;;;;;15.70;12.00;;;6.80;55.10;;;;;;5046286;28;20439;-59
2022/12/09 09:54:00;;;;;;;17.50;12.47;;;6.90;55.00;;;;;;5050980;28;20411;-59
2022/12/09 09:56:47;;;;;;;23.40;13.97;;;6.90;54.90;;;;;;5042609;28;20193;-59
2022/12/09 09:59:28;;;;;;;18.97;12.80;;;6.90;54.90;;;;;;5042171;28;20611;-59
2022/12/09 10:02:21;;;;;;;15.90;12.43;;;7.00;55.10;;;;;;5037326;28;20924;-59
2022/12/09 10:04:59;;;;;;;23.30;13.13;;;7.00;55.20;;;;;;5045445;28;20566;-59
2022/12/09 10:07:29;;;;;;;18.53;12.60;;;7.10;55.10;;;;;;5042464;28;20455;-59
2022/12/09 10:09:58;;;;;;;13.40;11.07;;;7.10;55.00;;;;;;5037461;28;20596;-59
2022/12/09 10:12:28;;;;;;;14.00;11.60;;;7.10;55.20;;;;;;5043941;28;20447;-59
2022/12/09 10:15:00;;;;;;;19.83;13.23;;;7.10;55.80;;;;;;5037584;28;20449;-59
2022/12/09 10:17:37;;;;;;;19.90;12.80;;;7.20;56.00;;;;;;5048945;28;20546;-59
2022/12/09 10:20:10;;;;;;;16.10;12.40;;;7.30;56.10;;;;;;5043072;28;20443;-59
2022/12/09 10:22:43;;;;;;;15.13;12.27;;;7.30;56.00;;;;;;5042258;28;20898;-59
2022/12/09 10:25:36;;;;;;;17.23;13.83;;;7.30;55.70;;;;;;5036455;28;20464;-59
2022/12/09 10:28:22;;;;;;;19.90;12.70;;;7.30;55.90;;;;;;5042826;28;20520;-59
2022/12/09 10:30:53;;;;;;;18.63;13.60;;;7.40;56.40;;;;;;5036435;28;22528;-59
2022/12/09 10:33:26;;;;;;;21.27;13.60;;;7.40;55.70;;;;;;5030350;28;20455;-60
2022/12/09 10:35:52;;;;;;;17.30;13.77;;;7.40;55.30;;;;;;5040264;28;20509;-59
2022/12/09 10:38:19;;;;;;;16.57;13.80;;;7.50;55.00;;;;;;5042747;28;20938;-59
2022/12/09 10:40:45;;;;;;;19.37;14.30;;;7.50;54.90;;;;;;5038062;28;20280;-59
2022/12/09 10:43:35;;;;;;;17.53;14.07;;;7.50;54.90;;;;;;5036735;28;20445;-59
2022/12/09 10:46:17;;;;;;;20.23;14.67;;;7.50;55.50;;;;;;5047624;28;20196;-59
2022/12/09 10:48:51;;;;;;;20.07;14.10;;;7.60;55.10;;;;;;5046419;28;20570;-59
2022/12/09 10:51:30;;;;;;;19.80;15.00;;;7.60;54.90;;;;;;5050479;28;20443;-59
2022/12/09 10:54:03;;;;;;;22.60;14.00;;;7.60;54.70;;;;;;5040611;28;20537;-58
2022/12/09 10:56:31;;;;;;;20.43;14.27;;;7.70;54.70;;;;;;5038839;28;20446;-58
2022/12/09 10:59:15;;;;;;;14.83;13.23;;;7.70;54.70;;;;;;5035613;28;20447;-58
2022/12/09 11:01:50;;;;;;;16.70;13.50;;;7.70;54.80;;;;;;5045434;28;20473;-58
2022/12/09 11:04:27;;;;;;;19.33;14.83;;;7.80;54.70;;;;;;5042661;28;20501;-58
2022/12/09 11:06:56;;;;;;;18.23;13.90;;;7.80;54.50;;;;;;5043013;28;20564;-58
2022/12/09 11:09:41;;;;;;;18.90;13.10;;;7.80;54.10;;;;;;5045436;28;21040;-58
2022/12/09 11:12:15;;;;;;;17.87;13.83;;;7.80;54.00;;;;;;5047682;28;20821;-58
2022/12/09 11:14:50;;;;;;;20.77;13.87;;;7.80;53.80;;;;;;5037220;28;20485;-58
2022/12/09 11:17:31;;;;;;;19.73;13.47;;;7.80;54.10;;;;;;5046298;28;21136;-58
2022/12/09 11:20:20;;;;;;;22.40;14.50;;;7.70;54.10;;;;;;5042176;28;20443;-58
2022/12/09 11:23:17;;;;;;;16.67;13.03;;;7.80;54.10;;;;;;5050286;28;20867;-58
2022/12/09 11:26:04;;;;;;;18.53;15.17;;;7.80;54.10;;;;;;5043619;28;20456;-57
2022/12/09 11:28:39;;;;;;;16.70;13.10;;;7.90;54.20;;;;;;5030465;28;20486;-57
2022/12/09 11:31:16;;;;;;;19.27;14.47;;;7.90;54.30;;;;;;5038481;28;20530;-56
2022/12/09 11:33:59;;;;;;;19.03;14.20;;;7.90;54.40;;;;;;5048094;28;20450;-57
2022/12/09 11:36:31;;;;;;;19.83;13.60;;;7.90;54.60;;;;;;5042723;28;20435;-56
2022/12/09 11:39:25;;;;;;;18.10;13.37;;;7.90;54.50;;;;;;5050189;28;20442;-56
2022/12/09 11:42:19;;;;;;;20.23;12.63;;;8.00;54.50;;;;;;5040190;28;20521;-56
2022/12/09 11:44:53;;;;;;;16.10;12.70;;;8.00;54.50;;;;;;5041599;28;20817;-56
2022/12/09 11:47:41;;;;;;;16.13;13.30;;;8.00;55.00;;;;;;5039596;28;20523;-56
2022/12/09 11:50:30;;;;;;;18.70;13.17;;;8.00;55.20;;;;;;5041965;28;20495;-57
2022/12/09 11:53:10;;;;;;;18.60;13.43;;;8.10;55.20;;;;;;5036373;28;20444;-56
2022/12/09 11:55:42;;;;;;;19.97;12.67;;;8.20;55.00;;;;;;5040970;28;20439;-56
2022/12/09 11:58:13;;;;;;;24.87;13.70;;;8.20;54.80;;;;;;5047159;28;20759;-56
2022/12/09 12:00:47;;;;;;;17.60;14.20;;;8.30;54.80;;;;;;5040547;28;20438;-57
2022/12/09 12:03:48;;;;;;;19.90;14.00;;;8.30;54.70;;;;;;5049040;28;20455;-56
2022/12/09 12:06:26;;;;;;;20.30;15.00;;;8.20;54.50;;;;;;5045933;28;20486;-56
2022/12/09 12:09:06;;;;;;;18.70;14.30;;;8.20;54.70;;;;;;5050383;28;20497;-57
2022/12/09 12:11:40;;;;;;;19.30;14.40;;;8.20;54.90;;;;;;5042478;28;20534;-57
2022/12/09 12:14:25;;;;;;;18.83;13.43;;;8.20;55.00;;;;;;5041152;28;20454;-56
2022/12/09 12:17:15;;;;;;;16.20;13.90;;;8.20;54.90;;;;;;5049485;28;20442;-57
2022/12/09 12:19:42;;;;;;;21.63;15.20;;;8.10;54.90;;;;;;5045569;28;20492;-57
2022/12/09 12:22:31;;;;;;;23.93;14.67;;;8.00;55.30;;;;;;5044916;28;20439;-57
2022/12/09 12:25:33;;;;;;;20.67;15.43;;;8.00;55.40;;;;;;5034443;28;20494;-57
2022/12/09 12:28:09;;;;;;;21.87;17.20;;;8.00;55.40;;;;;;5048117;28;20446;-55
2022/12/09 12:30:53;;;;;;;22.80;15.30;;;8.10;55.40;;;;;;5047612;28;20493;-56
2022/12/09 12:33:58;;;;;;;19.07;13.37;;;8.20;55.30;;;;;;5041980;28;21610;-56
2022/12/09 12:36:32;;;;;;;19.10;15.13;;;8.20;55.10;;;;;;5042458;28;20443;-56
2022/12/09 12:39:04;;;;;;;21.47;13.70;;;8.30;55.00;;;;;;5039257;28;20525;-56
2022/12/09 12:41:55;;;;;;;18.87;13.67;;;8.40;54.90;;;;;;5049171;28;20458;-55
2022/12/09 12:47:54;;;;;;;16.97;14.10;;;8.40;54.60;;;;;;5034364;28;20530;-55
2022/12/09 12:50:37;;;;;;;17.20;13.97;;;8.40;54.70;;;;;;5052601;28;20494;-56
2022/12/09 12:53:18;;;;;;;22.20;16.27;;;8.20;54.90;;;;;;5041541;28;20466;-56
2022/12/09 12:55:58;;;;;;;23.17;14.10;;;8.30;55.20;;;;;;5050013;28;20446;-55
2022/12/09 12:58:34;;;;;;;18.80;13.77;;;8.30;55.20;;;;;;5050701;28;20507;-55
2022/12/09 13:01:12;;;;;;;20.67;15.93;;;8.40;55.10;;;;;;5039197;28;20997;-55
2022/12/09 13:04:11;;;;;;;18.70;14.93;;;8.50;55.00;;;;;;5044511;28;20500;-55
2022/12/09 13:06:55;;;;;;;21.73;14.43;;;8.50;54.90;;;;;;5046988;28;20479;-55